Time;durP1;ratioP1;P1;durP2;ratioP2;P2;SDS_P1;SDS_P2;PMS_P1;PMS_P2;Temp;Humidity;BMP_temperature;BMP_pressure;BME280_temperature;BME280_humidity;BME280_pressure;Samples;Min_cycle;Max_cycle;Signal;HPM_P1;HPM_P2
2022/01/30 00:01:44;;;;;;;33.22;17.92;;;;;;;2.10;60.27;99186.53;5102174;28;20027;-63
2022/01/30 00:04:09;;;;;;;32.03;17.83;;;;;;;1.36;59.90;99114.16;5092593;28;20033;-64
2022/01/30 00:06:35;;;;;;;33.28;17.70;;;;;;;2.05;60.12;99170.53;5077103;28;20029;-63
2022/01/30 00:09:01;;;;;;;29.13;17.88;;;;;;;2.06;59.96;99161.94;5033248;27;20032;-66
2022/01/30 00:11:32;;;;;;;28.13;16.75;;;;;;;1.85;60.69;99160.44;5095279;28;20027;-66
2022/01/30 00:13:59;;;;;;;28.80;16.48;;;;;;;1.50;61.20;99083.56;5102742;28;20026;-66
2022/01/30 00:16:29;;;;;;;29.17;16.55;;;;;;;1.65;61.73;99136.63;5072530;28;20106;-66
2022/01/30 00:23:58;;;;;;;30.90;16.83;;;;;;;1.88;61.31;99109.00;5091923;28;20554;-66
2022/01/30 00:26:29;;;;;;;31.20;18.48;;;;;;;1.81;61.17;99115.38;5094576;28;20416;-66
2022/01/30 00:28:55;;;;;;;28.10;16.00;;;;;;;1.86;61.22;99105.69;5054925;27;20162;-66
2022/01/30 00:31:21;;;;;;;28.38;16.23;;;;;;;1.95;61.86;99112.91;5098025;28;20142;-66
2022/01/30 00:33:47;;;;;;;29.55;16.95;;;;;;;2.02;61.14;99093.72;5096861;28;20069;-66
2022/01/30 00:36:13;;;;;;;29.25;16.10;;;;;;;1.94;61.12;99090.75;5097019;28;20446;-66
2022/01/30 00:38:39;;;;;;;31.40;17.70;;;;;;;1.84;61.71;99089.53;5094949;28;20122;-66
2022/01/30 00:41:04;;;;;;;28.23;17.25;;;;;;;1.59;62.09;99085.66;5096099;28;20095;-66
2022/01/30 00:43:29;;;;;;;28.75;16.45;;;;;;;1.43;62.25;99080.47;5092767;28;20088;-66
2022/01/30 00:45:55;;;;;;;27.30;16.45;;;;;;;1.27;63.47;99074.44;5078697;28;20032;-65
2022/01/30 00:48:20;;;;;;;29.98;16.10;;;;;;;1.39;63.50;99083.22;5035924;27;25590;-65
2022/01/30 00:50:46;;;;;;;28.05;15.90;;;;;;;1.53;63.29;99073.13;5084221;28;20111;-65
2022/01/30 00:53:11;;;;;;;26.92;16.60;;;;;;;1.66;62.20;99069.06;5095365;28;20040;-66
2022/01/30 00:55:37;;;;;;;27.70;16.58;;;;;;;1.60;63.01;99045.47;5091068;28;20082;-66
2022/01/30 00:58:03;;;;;;;28.45;17.00;;;;;;;1.66;62.72;99055.41;5093148;28;20498;-66
2022/01/30 01:00:30;;;;;;;27.88;15.60;;;;;;;1.64;62.34;99052.09;5086058;27;20591;-66
2022/01/30 01:02:55;;;;;;;27.77;16.48;;;;;;;1.50;63.09;99052.81;5088889;28;20029;-66
2022/01/30 01:05:21;;;;;;;28.20;16.33;;;;;;;1.42;63.04;99058.28;5096233;28;20032;-66
2022/01/30 01:07:48;;;;;;;30.83;17.80;;;;;;;1.54;62.55;99064.56;5080153;28;20746;-65
2022/01/30 01:25:50;;;;;;;26.52;16.30;;;;;;;1.42;62.73;99029.28;5100039;28;20043;-66
2022/01/30 01:28:16;;;;;;;24.92;15.52;;;;;;;1.39;63.31;99029.41;5045694;27;20952;-65
2022/01/30 01:30:41;;;;;;;29.63;15.93;;;;;;;1.15;63.76;99027.19;5070205;28;20016;-65
2022/01/30 01:33:07;;;;;;;31.90;16.42;;;;;;;0.73;63.94;98987.38;5081062;28;20043;-65
2022/01/30 01:35:33;;;;;;;30.02;15.35;;;;;;;1.23;64.01;99026.81;5076146;28;20652;-65
2022/01/30 01:37:58;;;;;;;26.10;15.27;;;;;;;1.39;64.09;99029.41;5094803;28;20781;-65
2022/01/30 01:40:24;;;;;;;26.23;15.27;;;;;;;1.48;64.20;99032.38;5068874;28;20024;-65
2022/01/30 01:42:49;;;;;;;26.17;15.43;;;;;;;1.53;64.13;99019.31;5089939;28;20686;-65
2022/01/30 01:45:19;;;;;;;26.63;14.95;;;;;;;1.56;64.11;99011.47;5102576;28;20019;-65
2022/01/30 01:47:45;;;;;;;26.75;14.40;;;;;;;1.42;65.27;99016.47;5047659;27;20050;-65
2022/01/30 01:50:17;;;;;;;26.77;15.38;;;;;;;1.48;64.99;99014.44;5101228;28;20106;-65
2022/01/30 01:52:43;;;;;;;27.42;15.48;;;;;;;1.42;65.26;98993.41;5074225;28;20707;-65
2022/01/30 01:55:08;;;;;;;25.70;14.65;;;;;;;1.24;64.76;98949.88;5089049;28;20101;-65
2022/01/30 01:57:34;;;;;;;25.60;14.55;;;;;;;1.57;65.43;98995.19;5093548;28;20035;-65
2022/01/30 02:00:00;;;;;;;24.13;14.70;;;;;;;1.59;64.87;98979.72;5075482;28;20020;-65
2022/01/30 02:02:27;;;;;;;24.60;15.18;;;;;;;1.52;65.34;98971.53;5090784;28;20675;-65
2022/01/30 02:04:52;;;;;;;26.75;14.25;;;;;;;1.63;65.33;98966.69;5083323;28;20023;-65
2022/01/30 02:09:46;;;;;;;25.98;14.75;;;;;;;1.39;66.44;98922.66;5082887;28;20043;-65
2022/01/30 02:12:18;;;;;;;27.27;14.90;;;;;;;1.51;65.76;98942.50;5095271;28;20024;-65
2022/01/30 02:27:58;;;;;;;22.35;12.77;;;;;;;1.55;67.42;98922.66;5028548;28;20074;-65
2022/01/30 02:30:29;;;;;;;23.95;13.52;;;;;;;1.74;67.18;98932.78;5094172;28;20131;-65
2022/01/30 02:32:56;;;;;;;21.50;12.43;;;;;;;1.60;67.29;98881.41;5090497;28;20036;-65
2022/01/30 02:35:21;;;;;;;22.20;13.30;;;;;;;1.66;66.80;98924.66;5089111;28;20063;-64
2022/01/30 02:37:48;;;;;;;22.95;12.93;;;;;;;1.34;67.40;98863.94;5092922;28;20059;-65
2022/01/30 02:40:13;;;;;;;23.17;12.30;;;;;;;1.79;66.93;98906.88;5090481;28;20056;-64
2022/01/30 02:42:44;;;;;;;22.50;12.80;;;;;;;1.78;67.27;98897.56;5088985;28;20058;-64
2022/01/30 02:45:12;;;;;;;21.80;12.52;;;;;;;1.82;67.30;98899.88;5070680;28;20024;-65
2022/01/30 02:47:52;;;;;;;22.85;12.40;;;;;;;1.65;66.79;98880.25;5044928;28;20034;-65
2022/01/30 02:50:32;;;;;;;22.70;12.30;;;;;;;1.66;66.82;98905.00;5093860;28;20020;-65
2022/01/30 02:52:57;;;;;;;24.65;14.45;;;;;;;1.73;66.49;98887.53;5074956;28;20135;-65
2022/01/30 02:55:23;;;;;;;23.65;13.25;;;;;;;1.61;66.60;98857.47;5091962;28;20168;-65
2022/01/30 02:57:49;;;;;;;20.55;13.45;;;;;;;1.51;67.20;98892.97;5080679;28;20047;-64
2022/01/30 03:00:14;;;;;;;21.02;12.68;;;;;;;1.58;66.94;98888.38;5098789;28;20027;-65
2022/01/30 03:02:40;;;;;;;21.52;12.45;;;;;;;1.58;66.96;98889.19;5071323;28;20032;-65
2022/01/30 03:05:06;;;;;;;21.17;11.90;;;;;;;1.59;67.54;98890.84;5049307;28;20036;-65
2022/01/30 03:07:32;;;;;;;22.65;12.82;;;;;;;1.48;67.30;98880.34;5043056;28;20032;-65
2022/01/30 03:09:57;;;;;;;20.83;12.68;;;;;;;1.09;67.55;98836.22;5080431;28;20023;-65
2022/01/30 03:12:22;;;;;;;23.25;12.70;;;;;;;1.38;68.03;98891.97;5082603;28;20024;-64
2022/01/30 03:14:48;;;;;;;21.52;12.85;;;;;;;1.41;67.35;98879.00;5087639;28;21174;-65
2022/01/30 03:17:13;;;;;;;25.40;14.25;;;;;;;1.45;67.33;98883.06;5102495;28;20378;-65
2022/01/30 03:19:39;;;;;;;26.50;14.63;;;;;;;1.48;67.14;98883.72;5096065;28;20036;-65
2022/01/30 03:22:04;;;;;;;25.95;14.55;;;;;;;1.10;67.33;98860.09;5059923;27;20024;-65
2022/01/30 03:24:35;;;;;;;22.73;13.95;;;;;;;1.23;68.06;98862.88;5101037;28;20110;-65
2022/01/30 03:27:00;;;;;;;22.52;13.57;;;;;;;1.29;67.26;98862.53;5097289;28;20027;-65
2022/01/30 03:29:26;;;;;;;25.45;13.90;;;;;;;1.28;67.86;98864.28;5072113;28;20852;-65
2022/01/30 03:31:51;;;;;;;26.08;15.77;;;;;;;1.37;67.95;98855.28;5071568;28;20031;-65
2022/01/30 03:34:17;;;;;;;21.40;14.52;;;;;;;1.03;68.58;98844.22;5102933;28;20031;-65
2022/01/30 03:36:42;;;;;;;24.27;14.50;;;;;;;1.09;69.27;98855.88;5065345;27;20661;-65
2022/01/30 03:39:07;;;;;;;21.40;12.63;;;;;;;0.94;69.33;98848.06;5064915;27;20012;-65
2022/01/30 03:41:33;;;;;;;23.38;13.85;;;;;;;1.08;69.12;98846.56;5097512;28;20812;-65
2022/01/30 03:43:58;;;;;;;21.50;13.30;;;;;;;1.00;69.45;98856.34;5094366;28;20032;-65
2022/01/30 03:46:24;;;;;;;21.73;12.75;;;;;;;0.90;69.59;98836.34;5094394;28;20042;-65
2022/01/30 03:48:49;;;;;;;22.25;13.80;;;;;;;0.98;69.84;98853.03;5096147;28;20227;-65
2022/01/30 03:51:15;;;;;;;21.27;12.68;;;;;;;1.00;69.21;98844.38;5075618;28;20382;-65
2022/01/30 03:53:41;;;;;;;20.75;13.13;;;;;;;0.98;70.19;98837.69;5056503;27;20042;-65
2022/01/30 03:56:07;;;;;;;23.70;13.25;;;;;;;1.11;69.36;98843.81;5080720;28;20062;-65
2022/01/30 03:58:33;;;;;;;24.92;13.55;;;;;;;0.69;69.34;98797.28;5072142;28;20506;-65
2022/01/30 04:00:59;;;;;;;24.13;13.38;;;;;;;0.91;70.27;98843.13;5095316;28;20023;-65
2022/01/30 04:03:24;;;;;;;24.60;13.05;;;;;;;1.01;70.16;98843.47;5084289;28;20028;-65
2022/01/30 04:05:50;;;;;;;23.05;13.32;;;;;;;1.03;69.96;98838.28;5082006;28;20031;-65
2022/01/30 04:08:16;;;;;;;20.20;11.85;;;;;;;0.80;69.73;98776.25;5046146;27;20028;-65
2022/01/30 04:10:41;;;;;;;18.15;11.10;;;;;;;1.01;69.56;98835.78;5094243;27;20101;-65
2022/01/30 04:13:07;;;;;;;21.70;12.55;;;;;;;1.00;69.26;98818.75;5103133;28;20031;-65
2022/01/30 04:15:33;;;;;;;21.70;12.45;;;;;;;0.95;69.53;98806.22;5097816;28;20032;-65
2022/01/30 04:18:00;;;;;;;21.33;12.13;;;;;;;1.03;69.76;98817.78;5097552;28;20527;-65
2022/01/30 04:20:25;;;;;;;20.05;11.93;;;;;;;1.01;69.92;98796.56;5090964;28;20016;-65
2022/01/30 04:22:51;;;;;;;20.27;11.90;;;;;;;0.57;69.98;98749.31;5098385;28;20038;-65
2022/01/30 04:25:16;;;;;;;19.85;12.30;;;;;;;0.62;69.92;98757.59;5061171;28;20036;-63
2022/01/30 04:27:42;;;;;;;23.98;12.45;;;;;;;0.99;69.84;98821.44;5090487;27;20023;-65
2022/01/30 04:30:09;;;;;;;22.10;12.45;;;;;;;0.98;69.50;98819.75;5100172;28;20046;-65
2022/01/30 04:32:40;;;;;;;21.85;12.57;;;;;;;0.82;69.83;98825.69;5086768;28;20031;-65
2022/01/30 04:35:12;;;;;;;21.20;12.30;;;;;;;0.79;70.05;98822.44;5083770;28;20126;-65
2022/01/30 04:37:56;;;;;;;21.50;11.95;;;;;;;0.41;70.79;98766.34;5103359;28;20028;-65
2022/01/30 05:02:02;;;;;;;19.00;11.75;;;;;;;0.33;73.51;98812.78;5091996;28;20066;-65
2022/01/30 05:04:45;;;;;;;22.13;12.55;;;;;;;0.22;72.60;98764.69;5093381;28;20034;-65
2022/01/30 05:09:36;;;;;;;21.20;13.10;;;;;;;0.65;74.79;98802.66;5091580;28;20028;-65
2022/01/30 05:12:02;;;;;;;21.00;12.55;;;;;;;0.64;75.02;98795.88;5092699;28;20474;-65
2022/01/30 05:14:33;;;;;;;21.63;13.13;;;;;;;0.72;75.05;98788.63;5090462;28;20482;-65
2022/01/30 05:16:59;;;;;;;20.35;11.52;;;;;;;0.86;72.93;98798.16;5099773;28;20146;-65
2022/01/30 05:19:26;;;;;;;21.05;11.50;;;;;;;0.72;72.62;98783.53;5099174;28;20046;-65
2022/01/30 05:21:51;;;;;;;18.40;11.38;;;;;;;0.85;72.57;98796.53;5095554;28;20267;-65
2022/01/30 05:24:17;;;;;;;21.63;12.90;;;;;;;0.89;71.81;98795.44;5088870;28;20501;-65
2022/01/30 05:26:45;;;;;;;20.38;11.90;;;;;;;0.93;71.98;98784.13;5042827;28;20126;-65
2022/01/30 05:29:10;;;;;;;20.50;12.25;;;;;;;0.48;72.27;98734.44;5084301;28;20133;-65
2022/01/30 05:31:36;;;;;;;18.10;11.40;;;;;;;0.75;71.71;98784.19;5095249;28;20162;-65
2022/01/30 05:34:02;;;;;;;19.48;11.43;;;;;;;0.73;71.39;98791.13;5098909;28;20751;-65
2022/01/30 05:36:29;;;;;;;18.92;11.52;;;;;;;0.56;71.26;98768.13;5100888;28;20028;-65
2022/01/30 05:38:55;;;;;;;21.33;11.98;;;;;;;0.57;72.05;98783.38;5096979;28;20410;-65
2022/01/30 05:41:21;;;;;;;18.92;11.13;;;;;;;0.36;72.92;98779.34;5086096;28;20589;-65
2022/01/30 05:43:51;;;;;;;19.67;10.48;;;;;;;0.33;72.73;98736.03;5099692;28;20055;-65
2022/01/30 05:46:28;;;;;;;19.67;11.13;;;;;;;0.58;71.68;98768.84;5039148;28;20047;-65
2022/01/30 05:48:56;;;;;;;18.57;10.83;;;;;;;0.44;72.22;98767.00;5097493;28;20048;-65
2022/01/30 05:51:21;;;;;;;19.25;11.63;;;;;;;0.19;72.36;98744.38;5078144;28;20403;-65
2022/01/30 05:53:47;;;;;;;21.00;10.82;;;;;;;0.34;72.91;98773.47;5090168;28;20116;-65
2022/01/30 05:56:12;;;;;;;23.13;11.45;;;;;;;0.35;73.62;98775.16;5074146;28;20032;-65
2022/01/30 05:58:38;;;;;;;19.42;10.95;;;;;;;0.21;74.25;98765.59;5079898;28;20028;-65
2022/01/30 06:01:04;;;;;;;19.70;10.25;;;;;;;0.28;73.63;98761.00;5097371;28;20036;-65
2022/01/30 06:03:29;;;;;;;19.30;11.43;;;;;;;0.31;74.12;98774.47;5092254;28;20039;-64
2022/01/30 06:05:56;;;;;;;21.92;11.13;;;;;;;0.27;73.09;98777.25;5049404;28;20047;-65
2022/01/30 06:09:00;;;;;;;19.88;10.82;;;;;;;0.37;72.27;98779.28;5061173;28;20024;-65
2022/01/30 06:11:13;;;;;;;18.48;10.93;;;;;;;0.25;72.47;98779.06;5091561;28;20035;-65
2022/01/30 06:13:39;;;;;;;18.90;10.02;;;;;;;0.37;72.96;98774.16;5101103;28;20028;-65
2022/01/30 06:16:05;;;;;;;19.27;10.40;;;;;;;0.50;71.72;98771.00;5097770;28;20441;-65
2022/01/30 06:18:31;;;;;;;19.73;11.43;;;;;;;0.41;71.68;98756.09;5099771;28;20020;-65
2022/01/30 06:20:57;;;;;;;18.48;10.70;;;;;;;0.43;72.57;98755.13;5099447;28;20032;-65
2022/01/30 06:23:26;;;;;;;18.42;10.32;;;;;;;0.48;72.93;98765.94;5096380;28;20367;-65
2022/01/30 06:25:52;;;;;;;17.38;10.55;;;;;;;0.33;73.01;98774.41;5084373;28;20100;-65
2022/01/30 06:28:18;;;;;;;17.75;10.77;;;;;;;0.14;73.83;98713.91;5059601;28;20035;-65
2022/01/30 06:30:43;;;;;;;19.55;10.48;;;;;;;0.52;73.48;98769.19;5093319;28;20439;-65
2022/01/30 06:33:08;;;;;;;17.13;9.88;;;;;;;0.44;72.61;98761.91;5094791;28;20036;-65
2022/01/30 06:35:34;;;;;;;17.60;10.38;;;;;;;0.46;72.26;98766.94;5098191;28;20594;-65
2022/01/30 06:38:01;;;;;;;20.17;10.50;;;;;;;0.44;72.41;98766.16;5100338;28;20111;-65
2022/01/30 06:40:26;;;;;;;19.55;10.60;;;;;;;0.45;72.12;98763.53;5102496;28;20043;-65
2022/01/30 06:42:52;;;;;;;18.88;11.02;;;;;;;0.43;72.12;98764.53;5074052;28;20097;-65
2022/01/30 06:45:19;;;;;;;19.92;10.93;;;;;;;0.49;72.19;98764.22;5072115;27;20054;-65
2022/01/30 06:47:45;;;;;;;19.52;11.63;;;;;;;0.42;72.62;98757.75;5050755;27;20043;-65
2022/01/30 06:50:11;;;;;;;20.90;12.73;;;;;;;0.32;72.71;98765.88;5105594;28;20028;-65
2022/01/30 06:52:37;;;;;;;20.08;12.55;;;;;;;0.11;72.80;98713.22;5100697;28;20037;-65
2022/01/30 06:55:03;;;;;;;21.45;12.68;;;;;;;0.43;72.21;98762.78;5104344;28;20389;-65
2022/01/30 06:57:28;;;;;;;19.48;12.35;;;;;;;0.07;73.99;98778.22;5099563;28;20035;-65
2022/01/30 06:59:54;;;;;;;19.88;11.18;;;;;;;-0.08;75.45;98767.81;5097760;28;20103;-65
2022/01/30 07:02:19;;;;;;;18.73;11.20;;;;;;;0.09;74.65;98761.06;5087606;28;20039;-65
2022/01/30 07:04:44;;;;;;;21.55;11.70;;;;;;;-0.19;74.45;98713.84;5096685;28;20039;-65
2022/01/30 07:07:10;;;;;;;21.17;12.35;;;;;;;0.15;74.50;98756.50;5046021;27;20034;-65
2022/01/30 07:09:35;;;;;;;21.55;11.18;;;;;;;0.29;73.91;98772.88;5099148;28;20406;-66
2022/01/30 07:12:01;;;;;;;18.15;11.02;;;;;;;-0.08;74.44;98767.00;5095301;28;20058;-66
2022/01/30 07:14:26;;;;;;;19.85;10.25;;;;;;;0.08;74.67;98772.22;5076844;28;20055;-66
2022/01/30 07:16:52;;;;;;;17.95;10.10;;;;;;;0.12;75.21;98766.88;5094321;28;20113;-65
2022/01/30 07:19:18;;;;;;;21.30;10.75;;;;;;;0.22;74.92;98776.63;5104401;28;20102;-65
2022/01/30 07:21:43;;;;;;;18.98;10.43;;;;;;;-0.25;74.92;98707.31;5093951;28;20040;-66
2022/01/30 07:24:08;;;;;;;18.67;10.88;;;;;;;0.17;74.79;98761.53;5092628;28;20852;-66
2022/01/30 07:26:34;;;;;;;17.10;10.15;;;;;;;0.32;73.96;98767.63;5096151;28;20038;-66
2022/01/30 07:29:00;;;;;;;20.33;11.18;;;;;;;0.44;73.95;98755.94;5044912;27;20056;-65
2022/01/30 07:31:26;;;;;;;17.90;11.25;;;;;;;0.34;73.21;98740.22;5075721;28;20629;-66
2022/01/30 07:33:51;;;;;;;18.45;10.30;;;;;;;-0.16;73.65;98680.47;5082562;28;20034;-65
2022/01/30 07:36:17;;;;;;;21.63;11.25;;;;;;;0.32;73.87;98763.31;5097129;27;20028;-66
2022/01/30 07:38:43;;;;;;;19.30;10.35;;;;;;;0.33;74.68;98766.72;5076071;27;20038;-66
2022/01/30 07:41:08;;;;;;;18.25;10.18;;;;;;;0.27;75.55;98749.94;5091129;27;20046;-65
2022/01/30 07:43:34;;;;;;;19.60;11.45;;;;;;;0.48;75.18;98762.56;5090157;27;20386;-66
2022/01/30 07:46:00;;;;;;;17.95;10.82;;;;;;;0.04;74.07;98706.78;5097041;27;20521;-65
2022/01/30 07:48:25;;;;;;;18.23;11.43;;;;;;;0.01;73.44;98709.50;5018490;27;20031;-65
2022/01/30 07:50:51;;;;;;;19.70;10.70;;;;;;;0.16;74.64;98757.31;5097368;27;20501;-66
2022/01/30 07:53:16;;;;;;;21.88;12.10;;;;;;;0.14;74.79;98779.56;5094999;27;20042;-66
2022/01/30 07:55:42;;;;;;;19.48;11.43;;;;;;;-0.10;74.90;98707.47;5095835;28;20458;-65
2022/01/30 07:58:07;;;;;;;18.52;10.73;;;;;;;0.30;74.27;98764.31;5089968;28;20467;-65
2022/01/30 08:00:32;;;;;;;18.15;11.13;;;;;;;0.29;74.29;98745.59;5092194;28;20111;-66
2022/01/30 08:02:58;;;;;;;16.77;10.27;;;;;;;0.40;73.99;98752.69;5091583;28;20287;-65
2022/01/30 08:05:23;;;;;;;18.95;10.20;;;;;;;0.34;74.08;98758.94;5090926;28;20064;-66
2022/01/30 08:07:49;;;;;;;15.73;10.32;;;;;;;0.34;74.27;98747.91;5091407;28;20409;-65
2022/01/30 08:10:14;;;;;;;18.45;9.98;;;;;;;0.22;75.25;98761.28;5092168;28;20023;-66
2022/01/30 08:12:40;;;;;;;16.70;10.60;;;;;;;0.22;75.25;98762.16;5099985;28;20023;-65
2022/01/30 08:15:06;;;;;;;19.02;11.20;;;;;;;0.33;75.45;98751.38;5092610;28;20024;-65
2022/01/30 08:17:32;;;;;;;21.77;11.40;;;;;;;0.31;75.47;98754.00;5095159;28;20040;-65
2022/01/30 08:19:58;;;;;;;17.38;10.77;;;;;;;-0.07;76.75;98713.25;5094665;28;20042;-65
2022/01/30 08:22:23;;;;;;;20.63;10.90;;;;;;;0.27;76.60;98764.47;5096509;28;20020;-66
2022/01/30 08:24:48;;;;;;;24.10;11.35;;;;;;;0.29;76.18;98771.16;5075147;28;20028;-66
2022/01/30 08:27:14;;;;;;;18.38;10.60;;;;;;;0.48;75.75;98772.81;5093329;28;20123;-65
2022/01/30 08:29:39;;;;;;;20.35;11.18;;;;;;;0.51;75.67;98767.50;5096969;28;20039;-65
2022/01/30 08:32:11;;;;;;;19.02;10.95;;;;;;;0.18;75.28;98727.38;5098094;28;20466;-65
2022/01/30 08:34:37;;;;;;;18.10;11.10;;;;;;;0.50;74.83;98766.69;5095020;28;20020;-65
2022/01/30 08:37:02;;;;;;;19.48;10.73;;;;;;;0.57;75.58;98767.22;5091024;28;20035;-65
2022/01/30 08:39:28;;;;;;;18.40;11.07;;;;;;;0.50;75.25;98756.47;5090019;28;20030;-67
2022/01/30 08:41:53;;;;;;;16.52;10.55;;;;;;;0.60;75.21;98766.22;5094326;27;20035;-66
2022/01/30 08:44:18;;;;;;;20.42;11.00;;;;;;;0.45;75.92;98748.19;5092737;28;20036;-67
2022/01/30 08:46:44;;;;;;;18.13;11.50;;;;;;;0.25;76.12;98715.94;5094056;28;20394;-65
2022/01/30 08:49:09;;;;;;;22.70;12.52;;;;;;;0.41;76.05;98758.66;5076425;27;20110;-65
2022/01/30 08:51:35;;;;;;;20.83;11.75;;;;;;;0.63;75.90;98766.06;5089271;28;20070;-65
2022/01/30 08:54:00;;;;;;;21.42;12.23;;;;;;;0.46;76.37;98724.25;5095992;28;20040;-65
2022/01/30 08:56:28;;;;;;;21.40;12.27;;;;;;;0.32;77.62;98760.75;5073452;28;20115;-65
2022/01/30 08:58:54;;;;;;;21.88;12.38;;;;;;;0.51;80.53;98754.72;5065464;28;20044;-65
2022/01/30 09:01:19;;;;;;;22.42;11.82;;;;;;;0.72;80.80;98755.38;5096184;28;20100;-65
2022/01/30 09:03:44;;;;;;;18.92;11.13;;;;;;;0.81;80.77;98769.44;5074574;28;20166;-65
2022/01/30 09:06:10;;;;;;;15.95;9.73;;;;;;;0.93;80.98;98758.53;5090152;28;20028;-66
2022/01/30 09:08:36;;;;;;;17.52;11.10;;;;;;;1.02;80.72;98750.34;5084614;28;20038;-66
2022/01/30 09:11:01;;;;;;;15.38;9.75;;;;;;;1.21;80.44;98754.53;5101054;28;20032;-66
2022/01/30 09:13:27;;;;;;;20.25;11.27;;;;;;;1.25;79.84;98759.38;5097737;28;20043;-66
2022/01/30 09:15:57;;;;;;;18.05;10.73;;;;;;;0.94;80.86;98725.16;5095076;28;20067;-65
2022/01/30 09:18:24;;;;;;;16.95;10.60;;;;;;;1.27;80.19;98756.75;5086770;28;20032;-66
2022/01/30 09:20:50;;;;;;;18.05;11.25;;;;;;;1.22;79.71;98733.94;5073499;28;20038;-65
2022/01/30 09:23:16;;;;;;;17.27;10.52;;;;;;;1.29;80.64;98768.56;5071793;28;20032;-65
2022/01/30 09:25:41;;;;;;;20.40;11.32;;;;;;;1.39;80.66;98763.78;5097632;28;20038;-65
2022/01/30 09:28:07;;;;;;;18.33;10.63;;;;;;;1.38;80.10;98751.88;5080129;28;20028;-65
2022/01/30 09:30:33;;;;;;;15.95;9.27;;;;;;;1.43;79.32;98769.56;5094117;28;20038;-65
2022/01/30 09:32:59;;;;;;;18.30;10.10;;;;;;;1.47;79.97;98750.53;5091766;28;20046;-66
2022/01/30 09:35:24;;;;;;;18.35;10.80;;;;;;;1.39;80.26;98766.34;5096240;28;20023;-66
2022/01/30 09:37:50;;;;;;;16.08;9.85;;;;;;;1.36;81.10;98755.44;5076170;28;20031;-65
2022/01/30 09:40:17;;;;;;;17.05;9.68;;;;;;;1.60;80.21;98764.34;5085490;28;20016;-65
2022/01/30 09:42:45;;;;;;;16.08;9.32;;;;;;;1.75;79.19;98764.41;5093493;28;20132;-65
2022/01/30 09:45:11;;;;;;;17.38;9.68;;;;;;;1.72;78.59;98761.09;5070523;28;20474;-66
2022/01/30 09:47:37;;;;;;;16.52;10.27;;;;;;;1.80;77.70;98762.41;5090015;28;20062;-65
2022/01/30 09:50:04;;;;;;;17.50;9.15;;;;;;;1.83;77.50;98757.94;5089708;28;20685;-66
2022/01/30 09:52:30;;;;;;;15.15;8.77;;;;;;;1.85;74.54;98761.25;5094772;28;20105;-66
2022/01/30 09:54:55;;;;;;;14.82;8.05;;;;;;;1.86;74.68;98767.19;5090856;28;20031;-65
2022/01/30 09:57:21;;;;;;;12.23;6.88;;;;;;;1.97;72.96;98767.44;5087022;28;20042;-65
2022/01/30 09:59:47;;;;;;;15.52;8.00;;;;;;;2.05;73.48;98765.25;5063729;28;20394;-65
2022/01/30 10:02:14;;;;;;;12.70;8.13;;;;;;;2.07;73.61;98768.53;5090683;28;20039;-65
2022/01/30 10:04:40;;;;;;;15.35;9.93;;;;;;;2.19;72.42;98755.94;5086220;28;20350;-66
2022/01/30 10:07:15;;;;;;;16.73;9.40;;;;;;;2.25;72.42;98760.72;5082277;28;20028;-65
2022/01/30 10:09:46;;;;;;;15.95;7.63;;;;;;;2.42;69.73;98750.28;5082089;28;20024;-65
2022/01/30 10:12:19;;;;;;;13.45;7.95;;;;;;;2.55;68.12;98757.28;5095468;28;20031;-66
2022/01/30 10:14:54;;;;;;;13.18;7.10;;;;;;;2.34;68.86;98703.72;5087264;28;20031;-66
2022/01/30 10:17:40;;;;;;;12.50;6.75;;;;;;;2.73;67.93;98735.63;5097453;28;20082;-65
2022/01/30 10:20:10;;;;;;;13.38;7.13;;;;;;;3.10;67.35;98733.38;5096986;28;20632;-66
2022/01/30 10:22:36;;;;;;;;;;;;;;;3.26;67.24;98741.00;5084431;28;21861;-65
2022/01/30 10:25:02;;;;;;;12.55;7.40;;;;;;;3.45;66.46;98717.53;5091020;28;19911;-66
2022/01/30 10:27:29;;;;;;;11.63;6.63;;;;;;;3.72;64.37;98732.94;5093720;28;20039;-66
2022/01/30 10:30:06;;;;;;;14.45;7.78;;;;;;;3.94;63.15;98674.94;5092167;28;20035;-66
2022/01/30 10:32:33;;;;;;;14.50;6.60;;;;;;;4.39;58.62;98727.69;5095784;28;20106;-65
2022/01/30 10:35:05;;;;;;;10.98;5.60;;;;;;;4.45;61.43;98725.66;5089150;28;20138;-65
2022/01/30 10:37:30;;;;;;;9.80;5.20;;;;;;;4.46;60.63;98722.97;5104040;28;20035;-65
2022/01/30 10:40:06;;;;;;;13.30;6.57;;;;;;;4.18;59.81;98670.75;5082347;28;20084;-65
2022/01/30 10:42:39;;;;;;;19.88;9.60;;;;;;;4.43;59.06;98698.25;5101728;28;20550;-65
2022/01/30 10:45:09;;;;;;;14.70;8.65;;;;;;;4.46;58.69;98686.09;5100097;28;20166;-65
2022/01/30 10:47:36;;;;;;;13.75;7.93;;;;;;;4.57;58.14;98692.16;5079620;28;20028;-65
2022/01/30 10:50:11;;;;;;;13.32;8.07;;;;;;;4.86;58.88;98678.22;5094978;28;20032;-65
2022/01/30 10:53:04;;;;;;;14.95;7.05;;;;;;;5.34;58.21;98697.13;5098035;28;20164;-65
2022/01/30 10:55:38;;;;;;;11.75;5.60;;;;;;;5.23;57.77;98670.47;5100860;28;20417;-66
2022/01/30 10:58:05;;;;;;;13.02;6.78;;;;;;;5.00;58.60;98673.75;5105757;28;20436;-66
2022/01/30 11:00:53;;;;;;;12.23;6.38;;;;;;;5.09;60.80;98672.28;5102435;27;20027;-65
2022/01/30 11:03:40;;;;;;;15.02;7.60;;;;;;;5.19;59.44;98650.06;5094530;28;20027;-66
2022/01/30 11:06:10;;;;;;;15.73;6.65;;;;;;;5.28;60.38;98663.22;5093978;28;20016;-65
2022/01/30 11:08:39;;;;;;;16.23;7.82;;;;;;;5.73;59.34;98671.13;5080172;27;20048;-65
2022/01/30 11:11:26;;;;;;;13.43;6.57;;;;;;;6.02;57.17;98656.09;5107322;27;20081;-65
2022/01/30 11:14:17;;;;;;;12.45;5.88;;;;;;;5.76;59.19;98640.75;5096206;28;20281;-65
2022/01/30 11:16:57;;;;;;;16.70;8.13;;;;;;;5.83;58.81;98656.63;5096809;28;20047;-65
2022/01/30 11:19:23;;;;;;;18.27;9.80;;;;;;;5.96;58.71;98647.06;5093396;28;20055;-65
2022/01/30 11:21:51;;;;;;;13.65;6.70;;;;;;;6.62;58.27;98630.88;5073419;28;20032;-65
2022/01/30 11:24:19;;;;;;;12.85;5.13;;;;;;;6.82;58.02;98621.56;5096221;28;20027;-65
2022/01/30 11:26:45;;;;;;;10.05;5.43;;;;;;;7.00;56.89;98627.06;5077869;28;20047;-65
2022/01/30 11:29:12;;;;;;;11.10;6.07;;;;;;;6.94;61.04;98643.06;5097821;28;20015;-65
2022/01/30 11:31:38;;;;;;;13.15;6.50;;;;;;;6.67;56.36;98627.97;5090166;28;20031;-65
2022/01/30 11:34:04;;;;;;;15.48;6.80;;;;;;;6.46;57.89;98581.34;5093070;28;20058;-65
2022/01/30 11:36:31;;;;;;;11.95;6.28;;;;;;;6.81;56.40;98609.63;5096587;28;20047;-65
2022/01/30 11:38:56;;;;;;;13.82;6.80;;;;;;;7.07;56.30;98617.06;5073609;28;20039;-65
2022/01/30 11:41:22;;;;;;;10.23;6.13;;;;;;;7.03;55.40;98595.00;5087806;28;20051;-65
2022/01/30 11:44:19;;;;;;;10.43;6.15;;;;;;;7.00;57.15;98600.41;5077988;27;20042;-65
2022/01/30 11:46:57;;;;;;;12.70;6.40;;;;;;;7.29;56.70;98587.72;5098034;28;20063;-65
2022/01/30 11:49:36;;;;;;;14.77;6.55;;;;;;;7.36;55.76;98578.50;5098368;28;20059;-65
2022/01/30 11:52:02;;;;;;;15.25;6.60;;;;;;;7.49;54.89;98575.75;5088487;28;20047;-66
2022/01/30 11:54:39;;;;;;;13.05;6.32;;;;;;;8.10;51.31;98577.56;5076090;28;20079;-64
2022/01/30 11:57:20;;;;;;;14.32;6.97;;;;;;;7.84;53.96;98569.41;5076311;28;20153;-65
2022/01/30 11:59:50;;;;;;;12.73;7.13;;;;;;;7.89;55.15;98562.91;5096234;28;20030;-65
2022/01/30 12:02:31;;;;;;;12.88;6.90;;;;;;;7.73;55.58;98561.72;5101283;27;20012;-65
2022/01/30 12:05:10;;;;;;;12.32;5.45;;;;;;;8.00;54.81;98559.41;5103973;28;20106;-65
2022/01/30 12:07:39;;;;;;;9.77;5.95;;;;;;;8.34;53.08;98561.72;5086868;28;20032;-65
2022/01/30 12:10:19;;;;;;;12.80;5.85;;;;;;;8.71;51.73;98544.78;5099207;28;20032;-65
2022/01/30 12:12:56;;;;;;;11.00;5.95;;;;;;;8.87;51.64;98547.69;5094540;27;20059;-65
2022/01/30 12:15:39;;;;;;;10.73;6.57;;;;;;;8.84;50.92;98551.34;5100867;28;20031;-65
2022/01/30 12:18:06;;;;;;;11.43;6.32;;;;;;;8.45;50.91;98514.16;5080046;27;20071;-65
2022/01/30 12:21:05;;;;;;;13.60;7.53;;;;;;;8.87;51.41;98544.25;5087481;28;20034;-65
2022/01/30 12:23:32;;;;;;;16.95;7.82;;;;;;;9.32;49.85;98533.31;5085823;28;20106;-65
2022/01/30 12:26:04;;;;;;;14.00;6.63;;;;;;;8.92;50.81;98492.81;5084603;28;20557;-65
2022/01/30 12:28:50;;;;;;;13.27;6.75;;;;;;;9.03;51.82;98523.78;5085313;28;20039;-65
2022/01/30 12:31:25;;;;;;;10.82;6.28;;;;;;;8.90;51.00;98479.16;5091138;28;20028;-65